Time;durP1;ratioP1;P1;durP2;ratioP2;P2;SDS_P1;SDS_P2;PMS_P1;PMS_P2;Temp;Humidity;BMP_temperature;BMP_pressure;BME280_temperature;BME280_humidity;BME280_pressure;Samples;Min_cycle;Max_cycle;Signal;HPM_P1;HPM_P2
2022/04/12 00:00:37;;;;;;;5.10;4.18;;;;;;;5.75;100.00;95597.47;5052256;28;24423;-73
2022/04/12 00:03:05;;;;;;;4.53;2.92;;;;;;;5.78;100.00;95589.59;5052621;28;24489;-72
2022/04/12 00:05:33;;;;;;;3.70;3.00;;;;;;;5.76;100.00;95592.25;5052496;28;25022;-73
2022/04/12 00:08:01;;;;;;;3.13;2.60;;;;;;;5.74;100.00;95591.47;5052611;28;24427;-73
2022/04/12 00:10:28;;;;;;;3.43;2.53;;;;;;;5.75;100.00;95593.16;5052229;28;24426;-74
2022/04/12 00:12:55;;;;;;;3.80;2.92;;;;;;;5.75;100.00;95589.78;5052326;28;24514;-73
2022/04/12 00:15:21;;;;;;;6.88;3.70;;;;;;;5.65;99.61;95591.91;5052305;28;24437;-73
2022/04/12 00:20:33;;;;;;;5.13;3.65;;;;;;;5.56;100.00;95584.63;5052094;28;25256;-74
2022/04/12 00:23:01;;;;;;;4.63;3.35;;;;;;;5.57;100.00;95594.84;5052267;28;24450;-74
2022/04/12 00:25:28;;;;;;;4.60;3.40;;;;;;;5.63;100.00;95590.31;5052020;28;24415;-74
2022/04/12 00:27:56;;;;;;;3.45;2.78;;;;;;;5.65;100.00;95585.97;5052353;28;24450;-72
2022/04/12 00:30:24;;;;;;;4.22;3.20;;;;;;;5.67;100.00;95579.00;5052026;28;24411;-72
2022/04/12 00:32:52;;;;;;;4.63;2.50;;;;;;;5.70;100.00;95578.84;5052248;28;24427;-73
2022/04/12 00:35:19;;;;;;;3.38;2.33;;;;;;;5.69;100.00;95579.78;5051955;28;24431;-74
2022/04/12 00:37:47;;;;;;;2.67;2.20;;;;;;;5.71;100.00;95583.09;5051624;28;24434;-73
2022/04/12 00:40:16;;;;;;;2.35;2.05;;;;;;;5.70;100.00;95579.69;5051718;28;24789;-73
2022/04/12 00:42:42;;;;;;;3.40;2.45;;;;;;;5.67;100.00;95577.25;5051518;28;24882;-74
2022/04/12 00:45:10;;;;;;;2.22;2.03;;;;;;;5.65;100.00;95573.09;5051865;28;24817;-73
2022/04/12 00:47:36;;;;;;;3.85;2.42;;;;;;;5.56;100.00;95574.34;5051552;28;25026;-73
2022/04/12 00:50:03;;;;;;;4.20;2.22;;;;;;;5.48;99.89;95576.44;5051264;28;24430;-74
2022/04/12 00:52:31;;;;;;;2.42;2.03;;;;;;;5.41;100.00;95578.44;5051245;28;24800;-73
2022/04/12 00:54:59;;;;;;;4.40;2.45;;;;;;;5.16;100.00;95576.19;5052028;28;24473;-72
2022/04/12 00:57:26;;;;;;;3.90;2.33;;;;;;;5.09;100.00;95575.59;5051725;28;24427;-73
2022/04/12 00:59:54;;;;;;;2.40;2.20;;;;;;;4.95;100.00;95577.94;5051595;28;24793;-73
2022/04/12 01:02:22;;;;;;;5.32;2.45;;;;;;;4.82;100.00;95579.38;5051291;28;24876;-73
2022/04/12 01:04:48;;;;;;;3.30;1.85;;;;;;;4.93;100.00;95568.63;5051357;28;24958;-73
2022/04/12 01:07:15;;;;;;;3.05;2.38;;;;;;;4.98;100.00;95575.25;5051307;28;24422;-74
2022/04/12 01:09:41;;;;;;;2.17;1.95;;;;;;;5.01;100.00;95576.84;5051305;28;24430;-74
2022/04/12 01:12:11;;;;;;;3.17;2.15;;;;;;;5.02;100.00;95575.94;5050995;28;24430;-72
2022/04/12 01:14:38;;;;;;;4.13;2.30;;;;;;;4.89;100.00;95572.25;5051248;28;24446;-73
2022/04/12 01:17:06;;;;;;;2.88;2.10;;;;;;;4.78;100.00;95570.13;5051111;28;24477;-73
2022/04/12 01:19:34;;;;;;;2.97;2.22;;;;;;;4.65;100.00;95554.47;5051170;28;24419;-73
2022/04/12 01:22:05;;;;;;;5.50;2.28;;;;;;;4.54;100.00;95554.91;5050839;28;24462;-73
2022/04/12 01:24:33;;;;;;;3.97;2.05;;;;;;;4.46;100.00;95563.84;5051364;28;24419;-73
2022/04/12 01:27:00;;;;;;;3.67;2.30;;;;;;;4.38;100.00;95566.72;5051411;28;24485;-73
2022/04/12 01:29:33;;;;;;;3.03;2.15;;;;;;;4.35;100.00;95561.72;5051038;28;24423;-74
2022/04/12 01:32:00;;;;;;;4.90;2.45;;;;;;;4.32;100.00;95565.22;5050848;28;24511;-73
2022/04/12 01:34:27;;;;;;;4.45;2.40;;;;;;;4.31;100.00;95558.44;5051127;28;24463;-73
2022/04/12 01:36:54;;;;;;;2.83;2.28;;;;;;;4.51;100.00;95564.47;5050642;28;24431;-73
2022/04/12 01:39:21;;;;;;;4.45;2.40;;;;;;;4.51;100.00;95560.16;5051128;28;24420;-73
2022/04/12 01:41:49;;;;;;;2.80;2.10;;;;;;;4.47;100.00;95558.63;5050685;28;24502;-73
2022/04/12 01:44:15;;;;;;;4.32;2.20;;;;;;;4.35;100.00;95559.16;5050877;28;24848;-73
2022/04/12 01:46:42;;;;;;;2.70;2.30;;;;;;;4.41;100.00;95564.00;5050604;28;24419;-73
2022/04/12 01:49:08;;;;;;;2.53;1.98;;;;;;;4.52;100.00;95561.81;5050878;28;24419;-73
2022/04/12 01:51:35;;;;;;;3.00;2.20;;;;;;;4.58;100.00;95559.00;5050663;28;24438;-73
2022/04/12 01:54:01;;;;;;;6.75;2.33;;;;;;;4.61;100.00;95555.50;5050693;28;24952;-72
2022/04/12 01:56:28;;;;;;;2.80;2.25;;;;;;;4.66;100.00;95557.84;5050559;28;24550;-74
2022/04/12 01:58:57;;;;;;;4.35;2.00;;;;;;;4.68;100.00;95553.50;5050439;28;25009;-74
2022/04/12 02:01:23;;;;;;;3.67;2.00;;;;;;;4.71;100.00;95550.78;5049997;28;24443;-73
2022/04/12 02:03:49;;;;;;;2.97;1.87;;;;;;;4.73;100.00;95541.28;5049825;28;24451;-73
2022/04/12 02:06:16;;;;;;;2.93;2.00;;;;;;;4.74;100.00;95542.94;5050414;28;24883;-73
2022/04/12 02:08:43;;;;;;;4.57;2.30;;;;;;;4.72;100.00;95547.34;5050502;28;24422;-73
2022/04/12 02:11:10;;;;;;;2.97;2.10;;;;;;;4.70;100.00;95551.69;5050274;28;24835;-73
2022/04/12 02:13:36;;;;;;;2.10;1.70;;;;;;;4.72;100.00;95552.47;5050345;28;24431;-73
2022/04/12 02:16:05;;;;;;;2.97;2.10;;;;;;;4.70;100.00;95551.69;5050235;28;24426;-74
2022/04/12 02:18:31;;;;;;;7.60;2.33;;;;;;;4.65;100.00;95549.31;5050520;28;24430;-74
2022/04/12 02:20:57;;;;;;;2.97;2.03;;;;;;;4.65;100.00;95548.50;5050239;28;24426;-73
2022/04/12 02:23:24;;;;;;;5.10;2.38;;;;;;;4.57;100.00;95541.97;5050337;28;24475;-72
2022/04/12 02:25:50;;;;;;;3.13;2.10;;;;;;;4.47;100.00;95545.81;5050143;28;24424;-73
2022/04/12 02:28:17;;;;;;;2.97;2.00;;;;;;;4.29;100.00;95541.44;5050132;28;24477;-73
2022/04/12 02:30:44;;;;;;;3.83;2.35;;;;;;;4.31;100.00;95548.19;5050209;28;24475;-73
2022/04/12 02:33:12;;;;;;;3.53;2.08;;;;;;;4.34;100.00;95540.38;5050221;28;24454;-73
2022/04/12 02:35:39;;;;;;;2.42;2.20;;;;;;;4.41;100.00;95537.53;5049985;28;24415;-73
2022/04/12 02:38:06;;;;;;;2.78;1.95;;;;;;;4.44;100.00;95539.97;5050313;28;24426;-74
2022/04/12 02:40:32;;;;;;;2.63;2.28;;;;;;;4.46;100.00;95536.47;5050089;28;24456;-74
2022/04/12 02:42:58;;;;;;;2.50;2.05;;;;;;;4.48;100.00;95541.50;5049900;28;24443;-72
2022/04/12 02:45:25;;;;;;;4.25;2.47;;;;;;;4.47;100.00;95539.84;5050238;28;24420;-73
2022/04/12 02:47:51;;;;;;;2.00;1.70;;;;;;;4.50;100.00;95530.28;5050314;28;24820;-73
2022/04/12 02:50:19;;;;;;;2.90;1.95;;;;;;;4.48;100.00;95536.38;5050099;28;24952;-74
2022/04/12 02:52:45;;;;;;;2.75;2.20;;;;;;;4.45;100.00;95534.78;5049819;28;24419;-74
2022/04/12 02:55:12;;;;;;;2.80;2.13;;;;;;;4.45;100.00;95532.22;5050015;28;24473;-73
2022/04/12 02:57:38;;;;;;;2.03;1.80;;;;;;;4.44;100.00;95532.28;5049832;28;24485;-74
2022/04/12 03:00:06;;;;;;;3.15;1.80;;;;;;;4.45;100.00;95528.81;5049896;28;25097;-73
2022/04/12 03:02:33;;;;;;;2.15;1.77;;;;;;;4.43;100.00;95530.63;5049934;28;24434;-73
2022/04/12 03:04:59;;;;;;;2.38;1.80;;;;;;;4.36;100.00;95530.03;5049894;28;24473;-72
2022/04/12 03:07:27;;;;;;;2.85;1.98;;;;;;;4.32;100.00;95525.94;5049973;28;24423;-73
2022/04/12 03:09:53;;;;;;;2.40;1.63;;;;;;;4.35;100.00;95528.38;5049960;28;24426;-73
2022/04/12 03:12:20;;;;;;;3.58;1.95;;;;;;;4.36;100.00;95530.88;5049514;28;24430;-74
2022/04/12 03:14:46;;;;;;;2.53;1.80;;;;;;;4.33;100.00;95536.13;5052467;28;24415;-74
2022/04/12 03:17:13;;;;;;;2.72;1.85;;;;;;;4.33;100.00;95525.88;5053615;28;24423;-73
2022/04/12 03:19:39;;;;;;;2.72;1.90;;;;;;;4.31;100.00;95527.69;5053485;28;24945;-74
2022/04/12 03:22:06;;;;;;;3.38;1.90;;;;;;;4.32;100.00;95533.63;5053093;28;24411;-72
2022/04/12 03:24:34;;;;;;;3.53;2.20;;;;;;;4.32;100.00;95528.50;5053237;28;24443;-73
2022/04/12 03:27:00;;;;;;;2.50;1.85;;;;;;;4.24;100.00;95523.72;5052531;28;24447;-73
2022/04/12 03:29:27;;;;;;;1.90;1.70;;;;;;;3.88;100.00;95519.19;5053417;28;24423;-73
2022/04/12 03:31:54;;;;;;;2.75;2.13;;;;;;;3.83;100.00;95526.25;5053136;28;24431;-74
2022/04/12 03:34:21;;;;;;;2.53;1.70;;;;;;;3.81;100.00;95527.19;5053370;28;24418;-73
2022/04/12 03:36:47;;;;;;;3.88;2.00;;;;;;;3.84;100.00;95525.34;5052913;28;24473;-73
2022/04/12 03:39:17;;;;;;;2.72;1.90;;;;;;;3.75;100.00;95532.56;5053150;28;24557;-73
2022/04/12 03:41:45;;;;;;;2.38;2.03;;;;;;;3.67;100.00;95521.78;5052857;28;24502;-74
2022/04/12 03:44:12;;;;;;;1.90;1.70;;;;;;;3.82;100.00;95523.72;5053062;28;24450;-74
2022/04/12 03:46:38;;;;;;;3.22;2.10;;;;;;;3.85;100.00;95528.72;5052808;28;24971;-73
2022/04/12 03:49:05;;;;;;;3.00;2.00;;;;;;;3.83;100.00;95522.84;5052967;28;24956;-73
2022/04/12 03:51:32;;;;;;;3.25;2.30;;;;;;;3.88;100.00;95526.03;5052859;28;24423;-74
2022/04/12 03:53:59;;;;;;;3.00;1.88;;;;;;;3.66;100.00;95528.63;5052479;28;24431;-73
2022/04/12 03:56:25;;;;;;;2.25;1.88;;;;;;;3.75;100.00;95533.41;5052653;28;24883;-73
2022/04/12 03:58:53;;;;;;;2.10;1.80;;;;;;;3.81;100.00;95534.88;5052753;28;24430;-73
2022/04/12 04:01:19;;;;;;;3.50;1.90;;;;;;;3.84;100.00;95527.91;5052543;28;24975;-74
2022/04/12 04:03:46;;;;;;;5.90;2.10;;;;;;;3.89;100.00;95525.13;5052560;28;24446;-74
2022/04/12 04:06:12;;;;;;;3.20;2.10;;;;;;;3.75;100.00;95525.72;5052175;28;24427;-74
2022/04/12 04:08:39;;;;;;;2.97;1.70;;;;;;;3.70;100.00;95526.78;5052750;28;24418;-73
2022/04/12 04:11:05;;;;;;;3.33;2.00;;;;;;;3.77;100.00;95529.03;5052430;28;24514;-72
2022/04/12 04:13:36;;;;;;;2.50;1.80;;;;;;;3.94;100.00;95527.53;5052622;28;24418;-73
2022/04/12 04:16:04;;;;;;;5.50;1.98;;;;;;;3.84;100.00;95527.06;5052341;28;24522;-74
2022/04/12 04:18:30;;;;;;;3.03;2.50;;;;;;;3.67;100.00;95521.78;5052463;28;24494;-73
2022/04/12 04:20:57;;;;;;;3.35;2.17;;;;;;;3.57;100.00;95522.16;5052087;28;24419;-73
2022/04/12 04:23:23;;;;;;;2.70;2.03;;;;;;;3.58;100.00;95522.97;5052327;28;24501;-72
2022/04/12 04:25:50;;;;;;;3.78;1.90;;;;;;;3.51;100.00;95526.66;5051024;28;24443;-73
2022/04/12 04:28:21;;;;;;;7.32;2.53;;;;;;;3.39;100.00;95521.13;5052539;28;24423;-73
2022/04/12 04:30:49;;;;;;;2.90;2.05;;;;;;;3.14;100.00;95516.09;5051949;28;24531;-72
2022/04/12 04:33:18;;;;;;;3.47;2.03;;;;;;;3.13;100.00;95516.19;5052226;28;24430;-73
2022/04/12 04:35:45;;;;;;;2.33;2.05;;;;;;;3.06;100.00;95513.00;5051465;28;24522;-73
2022/04/12 04:38:11;;;;;;;3.78;2.22;;;;;;;3.07;100.00;95508.72;5052075;28;24438;-73
2022/04/12 04:40:38;;;;;;;2.42;2.00;;;;;;;3.21;100.00;95515.88;5051739;28;24419;-74
2022/04/12 04:43:04;;;;;;;2.92;2.33;;;;;;;3.30;100.00;95530.88;5052000;28;24431;-74
2022/04/12 04:45:31;;;;;;;4.67;2.17;;;;;;;3.29;100.00;95526.66;5051845;28;24422;-73
2022/04/12 04:47:59;;;;;;;2.75;2.10;;;;;;;3.32;100.00;95524.81;5051650;28;24936;-73
2022/04/12 04:50:29;;;;;;;3.67;2.47;;;;;;;3.36;100.00;95521.25;5051744;28;24427;-73
2022/04/12 04:52:57;;;;;;;3.03;2.28;;;;;;;3.18;100.00;95513.44;5051982;28;24477;-72
2022/04/12 04:55:23;;;;;;;3.90;2.15;;;;;;;3.19;100.00;95520.22;5051663;28;24426;-75
2022/04/12 04:57:54;;;;;;;4.43;2.35;;;;;;;3.26;100.00;95521.66;5051716;28;24423;-73
2022/04/12 05:00:22;;;;;;;4.45;2.10;;;;;;;3.29;100.00;95524.09;5051565;28;24437;-72
2022/04/12 05:02:50;;;;;;;3.53;1.90;;;;;;;3.13;100.00;95517.00;5051678;28;24431;-73
2022/04/12 05:05:17;;;;;;;3.73;2.20;;;;;;;3.11;100.00;95516.22;5051355;28;24523;-74
2022/04/12 05:07:46;;;;;;;4.60;1.90;;;;;;;3.15;100.00;95519.50;5051596;28;24442;-73
2022/04/12 05:10:14;;;;;;;3.38;2.17;;;;;;;3.15;100.00;95524.63;5051348;28;24427;-74
2022/04/12 05:12:41;;;;;;;2.33;1.90;;;;;;;3.31;100.00;95523.16;5050996;28;24449;-73
2022/04/12 05:15:08;;;;;;;8.27;2.38;;;;;;;3.38;100.00;95521.22;5050834;28;24419;-74
2022/04/12 05:17:35;;;;;;;2.22;1.92;;;;;;;3.44;100.00;95520.94;5051495;28;24435;-74
2022/04/12 05:20:01;;;;;;;2.58;2.00;;;;;;;3.35;100.00;95523.88;5051096;28;24427;-73
2022/04/12 05:22:28;;;;;;;3.92;2.20;;;;;;;3.26;100.00;95524.22;5051164;28;24419;-74
2022/04/12 05:24:55;;;;;;;3.47;2.10;;;;;;;3.33;100.00;95523.09;5050878;28;24509;-74
2022/04/12 05:27:22;;;;;;;4.57;2.30;;;;;;;3.50;100.00;95530.13;5050998;28;25042;-74
2022/04/12 05:29:49;;;;;;;4.25;2.15;;;;;;;3.63;100.00;95526.19;5049402;28;24522;-71
2022/04/12 05:32:15;;;;;;;3.35;2.22;;;;;;;3.82;100.00;95536.53;5048120;28;24535;-73
2022/04/12 05:34:42;;;;;;;2.90;2.20;;;;;;;3.94;100.00;95530.94;5050279;28;24960;-72
2022/04/12 05:37:09;;;;;;;2.43;1.83;;;;;;;4.06;100.00;95527.03;5042472;28;24471;-73
2022/04/12 05:39:35;;;;;;;2.53;2.08;;;;;;;4.12;100.00;95529.34;5030973;28;24423;-72
2022/04/12 05:42:04;;;;;;;3.70;2.20;;;;;;;4.27;100.00;95533.84;5030276;28;24416;-74
2022/04/12 05:44:33;;;;;;;3.33;2.40;;;;;;;4.51;100.00;95536.25;5030941;28;24541;-73
2022/04/12 05:46:59;;;;;;;4.25;2.00;;;;;;;4.46;100.00;95540.75;5030528;28;24473;-73
2022/04/12 05:49:26;;;;;;;3.08;2.17;;;;;;;4.54;100.00;95536.97;5030660;28;24427;-73
2022/04/12 05:51:52;;;;;;;3.05;2.40;;;;;;;4.75;100.00;95539.50;5030318;28;24435;-74
2022/04/12 05:54:19;;;;;;;4.40;2.53;;;;;;;4.93;100.00;95533.56;5032066;28;24435;-73
2022/04/12 05:56:45;;;;;;;4.32;2.38;;;;;;;5.11;100.00;95531.88;5040787;28;24431;-73
2022/04/12 05:59:13;;;;;;;3.63;2.70;;;;;;;5.16;100.00;95535.09;5039066;28;24957;-72
2022/04/12 06:01:39;;;;;;;4.15;2.92;;;;;;;5.12;100.00;95532.72;5039613;28;24442;-73
2022/04/12 06:04:06;;;;;;;4.03;2.38;;;;;;;4.96;100.00;95541.09;5039059;28;24459;-73
2022/04/12 06:06:33;;;;;;;4.75;2.60;;;;;;;4.52;100.00;95537.91;5041306;28;24490;-73
2022/04/12 06:09:00;;;;;;;2.85;2.53;;;;;;;4.42;100.00;95534.91;5040255;28;24435;-73
2022/04/12 06:11:27;;;;;;;4.10;3.10;;;;;;;4.39;100.00;95542.75;5042257;28;24423;-72
2022/04/12 06:13:53;;;;;;;6.22;3.03;;;;;;;4.40;100.00;95539.28;5041941;28;24439;-72
2022/04/12 06:16:21;;;;;;;7.90;2.95;;;;;;;4.36;100.00;95532.59;5040567;28;24427;-72
2022/04/12 06:18:48;;;;;;;4.03;2.40;;;;;;;4.53;100.00;95527.59;5041390;28;24435;-73
2022/04/12 06:21:14;;;;;;;2.85;2.05;;;;;;;4.65;100.00;95533.94;5038614;28;24438;-73
2022/04/12 06:23:41;;;;;;;2.28;1.90;;;;;;;4.72;100.00;95532.78;5040359;28;24989;-73
2022/04/12 06:26:07;;;;;;;3.88;2.20;;;;;;;4.91;100.00;95532.78;5040352;28;24435;-73
2022/04/12 06:28:34;;;;;;;3.00;2.20;;;;;;;4.90;100.00;95536.28;5039623;28;24439;-73
2022/04/12 06:31:01;;;;;;;2.80;2.03;;;;;;;4.97;100.00;95540.22;5038404;28;24463;-73
2022/04/12 06:33:29;;;;;;;2.92;2.40;;;;;;;5.07;100.00;95544.03;5040757;28;24844;-73
2022/04/12 06:35:56;;;;;;;3.33;2.15;;;;;;;5.22;100.00;95539.94;5044921;28;24444;-72
2022/04/12 06:38:23;;;;;;;2.65;2.08;;;;;;;5.16;100.00;95542.81;5049730;28;24531;-73
2022/04/12 06:40:49;;;;;;;3.88;2.35;;;;;;;5.31;100.00;95548.97;5049851;28;24467;-72
2022/04/12 06:43:16;;;;;;;2.83;2.15;;;;;;;5.45;100.00;95545.75;5038938;28;24435;-73
2022/04/12 06:45:43;;;;;;;3.67;2.20;;;;;;;5.58;100.00;95544.28;5039861;28;24455;-72
2022/04/12 06:48:10;;;;;;;9.10;2.50;;;;;;;5.72;100.00;95541.91;5038068;28;25043;-73
2022/04/12 06:50:38;;;;;;;5.85;2.70;;;;;;;5.79;100.00;95539.91;5050228;28;24438;-73
2022/04/12 06:53:04;;;;;;;3.13;2.03;;;;;;;6.05;100.00;95547.22;5053677;28;24472;-73
2022/04/12 06:55:31;;;;;;;3.13;2.10;;;;;;;6.28;99.41;95540.94;5053857;28;24430;-73
2022/04/12 06:57:57;;;;;;;2.88;2.10;;;;;;;6.55;96.77;95545.59;5037241;28;24491;-74
2022/04/12 07:00:25;;;;;;;3.53;2.20;;;;;;;6.97;96.79;95541.72;5049345;28;24434;-71
2022/04/12 07:02:52;;;;;;;3.55;2.58;;;;;;;7.19;91.17;95531.13;5053614;28;24478;-73
2022/04/12 07:05:18;;;;;;;4.50;2.50;;;;;;;7.52;90.45;95529.31;5053399;28;24446;-73
2022/04/12 07:07:46;;;;;;;4.30;1.95;;;;;;;7.67;88.35;95531.97;5052977;28;24778;-73
2022/04/12 07:10:14;;;;;;;2.78;2.40;;;;;;;7.62;87.87;95539.97;5053847;28;24480;-72
2022/04/12 07:12:41;;;;;;;2.88;2.10;;;;;;;7.54;87.06;95542.13;5052799;28;24423;-73
2022/04/12 07:15:10;;;;;;;5.68;2.60;;;;;;;7.60;87.25;95541.81;5053152;28;20824;-73
2022/04/12 07:17:36;;;;;;;2.80;2.43;;;;;;;7.61;87.40;95545.22;5053278;28;20805;-73
2022/04/12 07:20:03;;;;;;;6.72;2.40;;;;;;;7.67;87.80;95547.44;5053185;28;20759;-72
2022/04/12 07:22:30;;;;;;;3.28;2.38;;;;;;;7.90;86.63;95546.19;5052042;28;24489;-73
2022/04/12 07:24:57;;;;;;;5.22;2.35;;;;;;;8.17;85.23;95544.63;5053091;28;20794;-73
2022/04/12 07:27:24;;;;;;;3.83;2.55;;;;;;;8.47;83.81;95541.22;5050325;28;20812;-72
2022/04/12 07:29:50;;;;;;;14.50;2.80;;;;;;;8.86;80.12;95539.78;5052599;28;24481;-72
2022/04/12 07:32:17;;;;;;;5.00;2.85;;;;;;;9.43;79.14;95545.78;5053479;28;21167;-72
2022/04/12 07:34:43;;;;;;;3.97;2.58;;;;;;;9.92;75.81;95547.88;5052722;28;24476;-71
2022/04/12 07:37:10;;;;;;;5.78;2.25;;;;;;;9.99;74.41;95552.66;5050900;28;24489;-74
2022/04/12 07:39:36;;;;;;;3.30;2.40;;;;;;;10.35;72.99;95552.91;5050634;28;24602;-76
2022/04/12 07:42:05;;;;;;;4.67;2.80;;;;;;;10.71;74.07;95553.97;5042458;28;24439;-73
2022/04/12 07:44:33;;;;;;;3.35;2.20;;;;;;;10.80;69.79;95561.16;5053197;28;24502;-71
2022/04/12 07:47:00;;;;;;;4.70;2.65;;;;;;;10.79;67.24;95559.50;5050091;28;24808;-72
2022/04/12 07:49:28;;;;;;;5.30;2.70;;;;;;;10.91;69.15;95552.66;5051860;28;24862;-73
2022/04/12 07:51:54;;;;;;;4.15;2.50;;;;;;;11.22;67.54;95550.56;5052325;28;24485;-73
2022/04/12 07:54:21;;;;;;;5.43;2.80;;;;;;;11.39;64.36;95555.41;5052771;28;24438;-73
2022/04/12 07:56:47;;;;;;;4.97;3.05;;;;;;;11.72;64.78;95549.63;5052213;28;24838;-73
2022/04/12 07:59:15;;;;;;;7.35;2.78;;;;;;;11.94;62.86;95550.72;5051987;28;24477;-73
2022/04/12 08:01:41;;;;;;;5.50;2.97;;;;;;;12.08;61.91;95555.75;5050772;28;24438;-73
2022/04/12 08:04:08;;;;;;;4.15;2.38;;;;;;;12.07;57.04;95557.50;5052457;28;24439;-72
2022/04/12 08:06:34;;;;;;;4.10;2.83;;;;;;;12.14;55.84;95550.13;5052035;28;24443;-73
2022/04/12 08:09:01;;;;;;;4.30;2.45;;;;;;;12.34;55.27;95549.47;5052357;28;24446;-73
2022/04/12 08:11:27;;;;;;;5.75;2.40;;;;;;;12.52;56.75;95547.31;5051954;28;25019;-74
2022/04/12 08:13:54;;;;;;;3.58;2.63;;;;;;;12.55;52.45;95544.47;5051980;28;24439;-73
2022/04/12 08:16:22;;;;;;;5.05;2.60;;;;;;;12.89;53.49;95548.94;5051864;28;25058;-74
2022/04/12 08:18:48;;;;;;;4.72;2.80;;;;;;;13.05;51.44;95547.66;5051834;28;25050;-73
2022/04/12 08:21:15;;;;;;;3.63;2.25;;;;;;;13.34;51.03;95541.19;5051959;28;24442;-73
2022/04/12 08:23:41;;;;;;;4.88;2.58;;;;;;;13.59;48.34;95538.34;5052119;28;24435;-74
2022/04/12 08:26:08;;;;;;;2.88;2.10;;;;;;;13.63;47.88;95531.13;5051332;28;24802;-72
2022/04/12 08:28:34;;;;;;;4.72;2.25;;;;;;;13.58;46.53;95541.91;5051872;28;24505;-73
2022/04/12 08:31:01;;;;;;;4.17;2.40;;;;;;;13.52;45.27;95537.16;5051205;28;24431;-73
2022/04/12 08:33:29;;;;;;;3.65;2.08;;;;;;;13.43;46.04;95537.91;5052180;28;24419;-73
2022/04/12 08:35:55;;;;;;;2.60;2.10;;;;;;;13.62;45.93;95532.91;5051277;28;24431;-74
2022/04/12 08:38:21;;;;;;;3.60;2.40;;;;;;;13.78;45.79;95535.94;5051791;28;24435;-74
2022/04/12 08:40:49;;;;;;;2.63;1.70;;;;;;;13.94;48.08;95530.34;5050372;28;24814;-74
2022/04/12 08:43:16;;;;;;;4.30;2.10;;;;;;;13.54;45.41;95525.69;5051477;28;24481;-73
2022/04/12 08:45:45;;;;;;;5.32;2.35;;;;;;;13.45;46.11;95531.59;5051290;28;24486;-74
2022/04/12 08:48:12;;;;;;;5.80;2.08;;;;;;;13.35;48.81;95529.84;5051677;28;24454;-73
2022/04/12 08:50:40;;;;;;;3.53;2.20;;;;;;;13.42;48.92;95536.22;5051134;28;24439;-72
2022/04/12 08:53:09;;;;;;;3.85;2.22;;;;;;;13.88;49.50;95530.00;5051277;28;25129;-73
2022/04/12 08:55:36;;;;;;;4.32;2.15;;;;;;;14.05;48.13;95529.47;5051185;28;24440;-73
2022/04/12 08:58:02;;;;;;;5.85;2.10;;;;;;;14.19;47.43;95538.78;5050853;28;24474;-72
2022/04/12 09:00:29;;;;;;;2.92;1.65;;;;;;;14.30;46.70;95533.53;5045081;28;24897;-72
2022/04/12 09:02:59;;;;;;;4.97;1.67;;;;;;;14.49;46.63;95533.72;5051044;28;24987;-73
2022/04/12 09:05:26;;;;;;;3.47;1.50;;;;;;;14.79;46.20;95536.50;5035737;28;24447;-72
2022/04/12 09:07:54;;;;;;;4.63;1.35;;;;;;;15.33;46.33;95541.47;5050546;28;24432;-72
2022/04/12 09:10:25;;;;;;;3.13;1.67;;;;;;;15.69;46.99;95528.88;5050621;28;25080;-72
2022/04/12 09:12:52;;;;;;;2.30;1.52;;;;;;;15.42;42.87;95529.41;5050903;28;24443;-71
2022/04/12 09:15:19;;;;;;;2.88;1.60;;;;;;;15.27;42.68;95531.56;5051154;28;24427;-71
2022/04/12 09:17:48;;;;;;;4.75;1.88;;;;;;;15.35;43.13;95530.91;5050772;28;24443;-71
2022/04/12 09:20:19;;;;;;;5.72;1.90;;;;;;;15.26;42.79;95529.91;5050768;28;24442;-72
2022/04/12 09:22:46;;;;;;;3.65;1.77;;;;;;;15.31;42.08;95526.91;5056388;28;24852;-72
2022/04/12 09:25:16;;;;;;;2.30;1.48;;;;;;;15.41;41.60;95523.38;5060677;28;24462;-72
2022/04/12 09:27:44;;;;;;;4.75;1.73;;;;;;;15.57;41.96;95512.44;5052254;28;24508;-72
2022/04/12 09:30:12;;;;;;;3.40;1.60;;;;;;;15.88;39.29;95515.03;5050399;28;24523;-72
2022/04/12 09:32:40;;;;;;;1.80;1.20;;;;;;;16.13;39.59;95513.66;5050060;28;24522;-73
2022/04/12 09:35:08;;;;;;;2.42;1.40;;;;;;;15.85;38.25;95513.50;5050482;28;24435;-73
2022/04/12 09:37:39;;;;;;;1.90;1.25;;;;;;;15.66;40.00;95505.63;5050071;28;24446;-73
2022/04/12 09:40:07;;;;;;;2.05;1.30;;;;;;;15.81;40.64;95509.50;5051029;28;24439;-73
2022/04/12 09:42:45;;;;;;;2.27;1.03;;;;;;;15.68;39.43;95512.38;5050589;28;24438;-72
2022/04/12 09:45:13;;;;;;;2.25;1.23;;;;;;;15.70;40.43;95500.00;5050395;28;25002;-73
2022/04/12 09:47:40;;;;;;;2.63;1.13;;;;;;;15.67;39.24;95515.94;5049927;28;24458;-73
2022/04/12 09:50:10;;;;;;;1.15;1.00;;;;;;;15.72;40.25;95519.00;5050357;28;24438;-72
2022/04/12 09:52:37;;;;;;;2.30;1.17;;;;;;;15.78;39.77;95522.84;5050330;28;24500;-71
2022/04/12 09:55:05;;;;;;;2.33;1.10;;;;;;;15.99;40.59;95520.13;5050416;28;24828;-71
2022/04/12 09:57:33;;;;;;;1.63;1.33;;;;;;;16.02;40.21;95517.25;5050021;28;24497;-71
2022/04/12 10:00:01;;;;;;;2.25;1.10;;;;;;;16.13;39.57;95514.50;5053559;28;24437;-72
2022/04/12 10:02:28;;;;;;;2.53;1.08;;;;;;;16.47;40.25;95519.31;5058266;28;25029;-72
2022/04/12 10:04:56;;;;;;;3.22;1.35;;;;;;;16.53;37.97;95516.13;5050078;28;24442;-71
2022/04/12 10:07:24;;;;;;;1.95;1.15;;;;;;;16.85;38.59;95515.84;5049815;28;24473;-71
2022/04/12 10:09:53;;;;;;;1.90;1.15;;;;;;;16.76;38.82;95515.88;5050094;28;24431;-72
2022/04/12 10:12:20;;;;;;;3.65;1.10;;;;;;;17.12;39.35;95502.00;5049093;28;25033;-71
2022/04/12 10:14:47;;;;;;;3.25;1.40;;;;;;;17.06;38.55;95510.44;5050063;28;24434;-71
2022/04/12 10:17:15;;;;;;;2.13;1.20;;;;;;;17.41;39.43;95503.69;5049484;28;24908;-72
2022/04/12 10:19:42;;;;;;;1.95;1.20;;;;;;;17.35;38.44;95499.03;5050087;28;24980;-71
2022/04/12 10:22:10;;;;;;;2.70;1.10;;;;;;;17.37;38.17;95500.53;5050852;28;24434;-75
2022/04/12 10:24:38;;;;;;;4.35;1.45;;;;;;;17.42;37.98;95502.72;5057110;28;24493;-75
2022/04/12 10:27:06;;;;;;;2.22;1.42;;;;;;;17.65;39.69;95493.53;5053683;28;24455;-75
2022/04/12 10:29:32;;;;;;;1.80;1.27;;;;;;;17.72;38.44;95490.31;5053899;28;24843;-75
2022/04/12 10:32:00;;;;;;;1.70;1.10;;;;;;;17.75;37.02;95490.00;5053997;28;24785;-75
2022/04/12 10:34:28;;;;;;;1.98;1.30;;;;;;;17.86;38.14;95490.66;5054113;28;24828;-75
2022/04/12 10:37:04;;;;;;;2.15;1.23;;;;;;;18.02;36.65;95486.56;5053505;28;24820;-75
2022/04/12 10:39:33;;;;;;;1.83;1.15;;;;;;;17.92;37.78;95473.53;5053979;28;24435;-75
2022/04/12 10:42:04;;;;;;;3.00;1.35;;;;;;;17.72;37.95;95472.78;5053639;28;24442;-75
2022/04/12 10:44:37;;;;;;;2.63;1.23;;;;;;;17.72;38.94;95475.41;5053488;28;24828;-75
2022/04/12 10:47:04;;;;;;;2.65;1.38;;;;;;;17.77;37.74;95464.53;5053633;28;24551;-75
2022/04/12 10:49:37;;;;;;;4.20;1.30;;;;;;;17.67;38.05;95456.69;5053876;28;24485;-75
2022/04/12 10:52:08;;;;;;;1.30;1.15;;;;;;;17.69;37.92;95451.31;5053760;28;24874;-75
2022/04/12 10:54:36;;;;;;;2.95;1.50;;;;;;;17.71;37.70;95455.44;5053490;28;24438;-75
2022/04/12 10:57:22;;;;;;;2.13;1.30;;;;;;;17.97;39.21;95455.56;5053631;28;24489;-75
2022/04/12 10:59:53;;;;;;;3.97;1.27;;;;;;;18.22;40.56;95463.66;5053398;28;24474;-75
2022/04/12 11:02:20;;;;;;;2.00;1.15;;;;;;;18.44;36.70;95459.75;5053070;28;25055;-75
2022/04/12 11:04:48;;;;;;;1.90;1.25;;;;;;;19.07;36.22;95454.28;5051570;28;24484;-75
2022/04/12 11:07:35;;;;;;;1.92;1.00;;;;;;;19.22;33.87;95457.97;5052755;28;25027;-75
2022/04/12 11:10:29;;;;;;;3.53;1.10;;;;;;;19.10;30.62;95464.47;5053305;28;24442;-74
2022/04/12 11:13:05;;;;;;;2.55;1.10;;;;;;;19.17;32.50;95457.63;5041395;28;24447;-71
2022/04/12 11:15:33;;;;;;;1.38;1.10;;;;;;;19.07;29.39;95457.72;5052498;28;24535;-70
2022/04/12 11:18:11;;;;;;;1.43;1.00;;;;;;;19.15;30.05;95454.31;5053475;28;24919;-71
2022/04/12 11:20:42;;;;;;;1.60;1.00;;;;;;;19.10;30.30;95457.41;5053081;28;24443;-71
2022/04/12 11:23:11;;;;;;;1.45;0.90;;;;;;;19.21;30.24;95448.47;5053284;28;24476;-71
2022/04/12 11:25:49;;;;;;;1.87;1.10;;;;;;;19.36;28.42;95442.63;5052766;28;24457;-71
2022/04/12 11:28:17;;;;;;;8.77;1.67;;;;;;;19.18;30.02;95440.88;5052844;28;26345;-72
2022/04/12 11:30:54;;;;;;;1.63;0.85;;;;;;;19.24;29.27;95447.28;5052806;28;25026;-72
2022/04/12 11:33:23;;;;;;;1.65;1.10;;;;;;;19.32;29.07;95445.53;5053189;28;24553;-70
2022/04/12 11:35:53;;;;;;;2.80;1.15;;;;;;;19.21;30.42;95437.94;5051976;28;24493;-72
2022/04/12 11:38:21;;;;;;;1.20;0.82;;;;;;;19.13;30.56;95437.06;5052660;28;24873;-72